sensor_id;sensor_type;location;lat;lon;timestamp;P1;durP1;ratioP1;P2;durP2;ratioP2
12687;SDS011;6408;59.388;17.798;2022-09-13T00:01:21;2.35;;;2.00;;
12687;SDS011;6408;59.388;17.798;2022-09-13T00:03:48;2.90;;;1.90;;
12687;SDS011;6408;59.388;17.798;2022-09-13T00:06:16;3.38;;;1.77;;
12687;SDS011;6408;59.388;17.798;2022-09-13T00:08:45;1.95;;;1.70;;
12687;SDS011;6408;59.388;17.798;2022-09-13T00:14:42;2.40;;;1.60;;
12687;SDS011;6408;59.388;17.798;2022-09-13T00:17:17;2.72;;;1.77;;
12687;SDS011;6408;59.388;17.798;2022-09-13T00:19:50;4.00;;;1.80;;
12687;SDS011;6408;59.388;17.798;2022-09-13T00:22:19;3.03;;;1.60;;
12687;SDS011;6408;59.388;17.798;2022-09-13T00:24:51;4.13;;;1.70;;
12687;SDS011;6408;59.388;17.798;2022-09-13T00:27:18;3.17;;;1.83;;
12687;SDS011;6408;59.388;17.798;2022-09-13T00:29:49;2.95;;;1.60;;
12687;SDS011;6408;59.388;17.798;2022-09-13T00:32:17;3.33;;;1.75;;
12687;SDS011;6408;59.388;17.798;2022-09-13T00:34:44;3.45;;;1.70;;
12687;SDS011;6408;59.388;17.798;2022-09-13T00:37:11;3.22;;;1.50;;
12687;SDS011;6408;59.388;17.798;2022-09-13T00:39:39;1.77;;;1.50;;
12687;SDS011;6408;59.388;17.798;2022-09-13T00:42:08;2.20;;;1.52;;
12687;SDS011;6408;59.388;17.798;2022-09-13T00:44:53;2.42;;;1.88;;
12687;SDS011;6408;59.388;17.798;2022-09-13T00:47:24;2.05;;;1.70;;
12687;SDS011;6408;59.388;17.798;2022-09-13T00:49:55;5.20;;;1.90;;
12687;SDS011;6408;59.388;17.798;2022-09-13T00:52:29;3.10;;;1.80;;
12687;SDS011;6408;59.388;17.798;2022-09-13T00:55:00;4.03;;;1.70;;
12687;SDS011;6408;59.388;17.798;2022-09-13T00:57:33;3.20;;;1.70;;
12687;SDS011;6408;59.388;17.798;2022-09-13T01:00:05;3.78;;;1.70;;
12687;SDS011;6408;59.388;17.798;2022-09-13T01:02:38;2.42;;;1.73;;
12687;SDS011;6408;59.388;17.798;2022-09-13T01:05:11;2.50;;;1.65;;
12687;SDS011;6408;59.388;17.798;2022-09-13T01:07:40;2.25;;;1.95;;
12687;SDS011;6408;59.388;17.798;2022-09-13T01:10:09;3.92;;;1.90;;
12687;SDS011;6408;59.388;17.798;2022-09-13T01:12:39;2.17;;;1.80;;
12687;SDS011;6408;59.388;17.798;2022-09-13T01:15:13;2.08;;;1.60;;
12687;SDS011;6408;59.388;17.798;2022-09-13T01:17:41;3.10;;;1.67;;
12687;SDS011;6408;59.388;17.798;2022-09-13T01:20:11;2.03;;;1.83;;
12687;SDS011;6408;59.388;17.798;2022-09-13T01:23:03;1.80;;;1.67;;
12687;SDS011;6408;59.388;17.798;2022-09-13T01:32:26;4.47;;;1.67;;
12687;SDS011;6408;59.388;17.798;2022-09-13T01:35:04;3.25;;;1.88;;
12687;SDS011;6408;59.388;17.798;2022-09-13T01:37:49;2.95;;;1.85;;
12687;SDS011;6408;59.388;17.798;2022-09-13T01:40:26;2.60;;;2.00;;
12687;SDS011;6408;59.388;17.798;2022-09-13T01:43:16;2.17;;;1.90;;
12687;SDS011;6408;59.388;17.798;2022-09-13T01:45:55;2.45;;;1.60;;
12687;SDS011;6408;59.388;17.798;2022-09-13T01:48:35;2.28;;;1.88;;
12687;SDS011;6408;59.388;17.798;2022-09-13T01:51:20;3.42;;;1.67;;
12687;SDS011;6408;59.388;17.798;2022-09-13T01:53:57;3.22;;;1.95;;
12687;SDS011;6408;59.388;17.798;2022-09-13T01:56:36;3.90;;;1.80;;
12687;SDS011;6408;59.388;17.798;2022-09-13T01:59:09;4.70;;;1.70;;
12687;SDS011;6408;59.388;17.798;2022-09-13T02:01:42;2.53;;;1.73;;
12687;SDS011;6408;59.388;17.798;2022-09-13T02:04:16;3.45;;;1.98;;
12687;SDS011;6408;59.388;17.798;2022-09-13T02:06:47;2.15;;;1.67;;
12687;SDS011;6408;59.388;17.798;2022-09-13T02:09:20;2.47;;;1.67;;
12687;SDS011;6408;59.388;17.798;2022-09-13T02:11:51;2.38;;;1.90;;
12687;SDS011;6408;59.388;17.798;2022-09-13T02:14:28;1.70;;;1.60;;
12687;SDS011;6408;59.388;17.798;2022-09-13T02:17:01;4.55;;;1.63;;
12687;SDS011;6408;59.388;17.798;2022-09-13T02:19:34;5.95;;;2.03;;
12687;SDS011;6408;59.388;17.798;2022-09-13T02:22:07;2.35;;;1.67;;
12687;SDS011;6408;59.388;17.798;2022-09-13T02:24:40;2.67;;;1.75;;
12687;SDS011;6408;59.388;17.798;2022-09-13T02:27:13;1.73;;;1.50;;
12687;SDS011;6408;59.388;17.798;2022-09-13T02:29:45;2.08;;;1.55;;
12687;SDS011;6408;59.388;17.798;2022-09-13T02:32:17;2.53;;;1.70;;
12687;SDS011;6408;59.388;17.798;2022-09-13T02:34:50;2.85;;;1.67;;
12687;SDS011;6408;59.388;17.798;2022-09-13T02:37:21;1.80;;;1.70;;
12687;SDS011;6408;59.388;17.798;2022-09-13T02:39:50;2.10;;;1.70;;
12687;SDS011;6408;59.388;17.798;2022-09-13T02:42:25;2.00;;;1.40;;
12687;SDS011;6408;59.388;17.798;2022-09-13T02:44:57;1.77;;;1.67;;
12687;SDS011;6408;59.388;17.798;2022-09-13T02:47:38;2.17;;;1.70;;
12687;SDS011;6408;59.388;17.798;2022-09-13T02:50:13;2.88;;;2.00;;
12687;SDS011;6408;59.388;17.798;2022-09-13T02:52:58;2.28;;;1.80;;
12687;SDS011;6408;59.388;17.798;2022-09-13T02:55:36;4.53;;;1.90;;
12687;SDS011;6408;59.388;17.798;2022-09-13T02:58:08;3.72;;;1.95;;
12687;SDS011;6408;59.388;17.798;2022-09-13T03:00:39;3.60;;;1.83;;
12687;SDS011;6408;59.388;17.798;2022-09-13T03:03:10;2.00;;;1.80;;
12687;SDS011;6408;59.388;17.798;2022-09-13T03:05:42;4.85;;;2.03;;
12687;SDS011;6408;59.388;17.798;2022-09-13T03:08:09;2.03;;;1.80;;
12687;SDS011;6408;59.388;17.798;2022-09-13T03:10:43;2.13;;;1.92;;
12687;SDS011;6408;59.388;17.798;2022-09-13T03:13:33;1.92;;;1.70;;
12687;SDS011;6408;59.388;17.798;2022-09-13T03:16:24;4.50;;;2.00;;
12687;SDS011;6408;59.388;17.798;2022-09-13T03:19:04;2.95;;;2.08;;
12687;SDS011;6408;59.388;17.798;2022-09-13T03:21:54;2.72;;;2.03;;
12687;SDS011;6408;59.388;17.798;2022-09-13T03:24:36;2.30;;;1.92;;
12687;SDS011;6408;59.388;17.798;2022-09-13T03:27:16;2.22;;;1.80;;
12687;SDS011;6408;59.388;17.798;2022-09-13T03:29:54;2.88;;;1.98;;
12687;SDS011;6408;59.388;17.798;2022-09-13T03:32:29;3.88;;;2.25;;
12687;SDS011;6408;59.388;17.798;2022-09-13T03:35:03;2.67;;;1.98;;
12687;SDS011;6408;59.388;17.798;2022-09-13T03:37:39;3.58;;;1.83;;
12687;SDS011;6408;59.388;17.798;2022-09-13T03:40:20;5.07;;;1.92;;
12687;SDS011;6408;59.388;17.798;2022-09-13T03:42:51;2.63;;;2.20;;
12687;SDS011;6408;59.388;17.798;2022-09-13T03:45:25;3.80;;;2.15;;
12687;SDS011;6408;59.388;17.798;2022-09-13T03:47:56;3.83;;;2.35;;
12687;SDS011;6408;59.388;17.798;2022-09-13T03:50:24;2.97;;;2.03;;
12687;SDS011;6408;59.388;17.798;2022-09-13T03:52:53;2.47;;;2.05;;
12687;SDS011;6408;59.388;17.798;2022-09-13T03:55:26;2.75;;;2.38;;
12687;SDS011;6408;59.388;17.798;2022-09-13T03:57:54;3.13;;;2.40;;
12687;SDS011;6408;59.388;17.798;2022-09-13T04:00:21;3.72;;;2.83;;
12687;SDS011;6408;59.388;17.798;2022-09-13T04:02:49;3.88;;;2.05;;
12687;SDS011;6408;59.388;17.798;2022-09-13T04:05:16;2.58;;;2.38;;
12687;SDS011;6408;59.388;17.798;2022-09-13T04:07:44;4.07;;;2.33;;
12687;SDS011;6408;59.388;17.798;2022-09-13T04:10:13;3.85;;;2.35;;
12687;SDS011;6408;59.388;17.798;2022-09-13T04:12:40;2.92;;;2.28;;
12687;SDS011;6408;59.388;17.798;2022-09-13T04:15:09;3.30;;;2.08;;
12687;SDS011;6408;59.388;17.798;2022-09-13T04:17:42;3.08;;;2.40;;
12687;SDS011;6408;59.388;17.798;2022-09-13T04:20:09;5.80;;;2.70;;
12687;SDS011;6408;59.388;17.798;2022-09-13T04:22:40;3.72;;;2.30;;
12687;SDS011;6408;59.388;17.798;2022-09-13T04:25:08;3.40;;;2.30;;
12687;SDS011;6408;59.388;17.798;2022-09-13T04:27:37;2.60;;;2.35;;
12687;SDS011;6408;59.388;17.798;2022-09-13T04:30:05;6.85;;;2.60;;
12687;SDS011;6408;59.388;17.798;2022-09-13T04:32:33;2.70;;;2.40;;
12687;SDS011;6408;59.388;17.798;2022-09-13T04:35:02;2.88;;;2.50;;
12687;SDS011;6408;59.388;17.798;2022-09-13T04:37:30;2.45;;;2.00;;
12687;SDS011;6408;59.388;17.798;2022-09-13T04:40:00;2.47;;;2.20;;
12687;SDS011;6408;59.388;17.798;2022-09-13T04:42:30;2.50;;;2.30;;
12687;SDS011;6408;59.388;17.798;2022-09-13T04:45:00;3.10;;;2.33;;
12687;SDS011;6408;59.388;17.798;2022-09-13T04:47:30;3.25;;;2.35;;
12687;SDS011;6408;59.388;17.798;2022-09-13T04:49:58;7.28;;;2.63;;
12687;SDS011;6408;59.388;17.798;2022-09-13T04:52:25;3.60;;;2.35;;
12687;SDS011;6408;59.388;17.798;2022-09-13T04:54:54;5.13;;;2.17;;
12687;SDS011;6408;59.388;17.798;2022-09-13T04:57:25;2.40;;;2.20;;
12687;SDS011;6408;59.388;17.798;2022-09-13T04:59:53;5.50;;;2.72;;
12687;SDS011;6408;59.388;17.798;2022-09-13T05:02:23;3.95;;;2.40;;
12687;SDS011;6408;59.388;17.798;2022-09-13T05:04:54;3.40;;;2.20;;
12687;SDS011;6408;59.388;17.798;2022-09-13T05:07:24;4.55;;;2.17;;
12687;SDS011;6408;59.388;17.798;2022-09-13T05:09:52;5.95;;;2.22;;
12687;SDS011;6408;59.388;17.798;2022-09-13T05:12:21;2.70;;;2.10;;
12687;SDS011;6408;59.388;17.798;2022-09-13T05:14:48;4.38;;;2.45;;
12687;SDS011;6408;59.388;17.798;2022-09-13T05:17:16;2.33;;;2.13;;
12687;SDS011;6408;59.388;17.798;2022-09-13T05:19:46;3.13;;;2.40;;
12687;SDS011;6408;59.388;17.798;2022-09-13T05:22:13;3.95;;;2.53;;
12687;SDS011;6408;59.388;17.798;2022-09-13T05:24:41;2.20;;;2.00;;
12687;SDS011;6408;59.388;17.798;2022-09-13T05:27:09;2.47;;;2.08;;
12687;SDS011;6408;59.388;17.798;2022-09-13T05:29:36;3.00;;;2.28;;
12687;SDS011;6408;59.388;17.798;2022-09-13T05:32:04;2.42;;;2.10;;
12687;SDS011;6408;59.388;17.798;2022-09-13T05:34:31;3.20;;;1.95;;
12687;SDS011;6408;59.388;17.798;2022-09-13T05:37:07;2.10;;;1.90;;
12687;SDS011;6408;59.388;17.798;2022-09-13T05:39:36;2.22;;;2.03;;
12687;SDS011;6408;59.388;17.798;2022-09-13T05:42:04;5.63;;;2.10;;
12687;SDS011;6408;59.388;17.798;2022-09-13T05:44:32;3.42;;;1.98;;
12687;SDS011;6408;59.388;17.798;2022-09-13T05:47:00;4.00;;;2.40;;
12687;SDS011;6408;59.388;17.798;2022-09-13T05:49:27;3.55;;;2.10;;
12687;SDS011;6408;59.388;17.798;2022-09-13T05:51:55;2.20;;;2.00;;
12687;SDS011;6408;59.388;17.798;2022-09-13T05:54:23;2.72;;;2.10;;
12687;SDS011;6408;59.388;17.798;2022-09-13T05:56:53;4.28;;;2.08;;
12687;SDS011;6408;59.388;17.798;2022-09-13T05:59:21;3.10;;;2.17;;
12687;SDS011;6408;59.388;17.798;2022-09-13T06:01:50;4.28;;;1.95;;
12687;SDS011;6408;59.388;17.798;2022-09-13T06:04:17;3.75;;;2.20;;
12687;SDS011;6408;59.388;17.798;2022-09-13T06:06:45;2.15;;;1.90;;
12687;SDS011;6408;59.388;17.798;2022-09-13T06:09:14;3.17;;;2.10;;
12687;SDS011;6408;59.388;17.798;2022-09-13T06:11:44;4.88;;;1.90;;
12687;SDS011;6408;59.388;17.798;2022-09-13T06:14:11;3.13;;;2.10;;
12687;SDS011;6408;59.388;17.798;2022-09-13T06:16:44;5.53;;;2.10;;
12687;SDS011;6408;59.388;17.798;2022-09-13T06:19:11;2.83;;;2.00;;
12687;SDS011;6408;59.388;17.798;2022-09-13T06:21:39;5.65;;;1.98;;
12687;SDS011;6408;59.388;17.798;2022-09-13T06:24:07;2.65;;;1.90;;
12687;SDS011;6408;59.388;17.798;2022-09-13T06:26:39;4.90;;;2.38;;
12687;SDS011;6408;59.388;17.798;2022-09-13T06:29:10;4.00;;;2.03;;
12687;SDS011;6408;59.388;17.798;2022-09-13T06:31:37;2.47;;;1.88;;
12687;SDS011;6408;59.388;17.798;2022-09-13T06:34:09;3.45;;;1.60;;
12687;SDS011;6408;59.388;17.798;2022-09-13T06:36:38;2.95;;;2.40;;
12687;SDS011;6408;59.388;17.798;2022-09-13T06:39:06;2.40;;;2.13;;
12687;SDS011;6408;59.388;17.798;2022-09-13T06:41:33;2.55;;;2.00;;
12687;SDS011;6408;59.388;17.798;2022-09-13T06:44:02;3.35;;;2.30;;
12687;SDS011;6408;59.388;17.798;2022-09-13T06:46:31;3.13;;;2.08;;
12687;SDS011;6408;59.388;17.798;2022-09-13T06:49:01;2.40;;;2.20;;
12687;SDS011;6408;59.388;17.798;2022-09-13T06:51:31;8.50;;;2.40;;
12687;SDS011;6408;59.388;17.798;2022-09-13T06:54:02;5.22;;;2.58;;
12687;SDS011;6408;59.388;17.798;2022-09-13T06:56:30;4.15;;;2.42;;
12687;SDS011;6408;59.388;17.798;2022-09-13T06:59:02;3.00;;;2.30;;
12687;SDS011;6408;59.388;17.798;2022-09-13T07:01:34;2.58;;;2.15;;
12687;SDS011;6408;59.388;17.798;2022-09-13T07:04:04;3.05;;;2.25;;
12687;SDS011;6408;59.388;17.798;2022-09-13T07:06:34;4.05;;;2.55;;
12687;SDS011;6408;59.388;17.798;2022-09-13T07:09:02;6.40;;;2.50;;
12687;SDS011;6408;59.388;17.798;2022-09-13T07:11:35;6.97;;;2.35;;
12687;SDS011;6408;59.388;17.798;2022-09-13T07:14:04;2.70;;;2.22;;
12687;SDS011;6408;59.388;17.798;2022-09-13T07:16:36;2.83;;;2.03;;
12687;SDS011;6408;59.388;17.798;2022-09-13T07:19:06;2.60;;;2.17;;
12687;SDS011;6408;59.388;17.798;2022-09-13T07:21:38;2.67;;;2.30;;
12687;SDS011;6408;59.388;17.798;2022-09-13T07:24:05;2.30;;;2.10;;
12687;SDS011;6408;59.388;17.798;2022-09-13T07:26:32;3.50;;;2.20;;
12687;SDS011;6408;59.388;17.798;2022-09-13T07:29:00;4.00;;;2.15;;
12687;SDS011;6408;59.388;17.798;2022-09-13T07:31:35;3.28;;;2.05;;
12687;SDS011;6408;59.388;17.798;2022-09-13T07:34:10;4.03;;;1.83;;
12687;SDS011;6408;59.388;17.798;2022-09-13T07:36:41;2.08;;;1.60;;
12687;SDS011;6408;59.388;17.798;2022-09-13T07:39:11;3.13;;;1.90;;
12687;SDS011;6408;59.388;17.798;2022-09-13T07:41:39;2.05;;;1.50;;
12687;SDS011;6408;59.388;17.798;2022-09-13T07:44:06;2.03;;;1.55;;
12687;SDS011;6408;59.388;17.798;2022-09-13T07:46:40;1.60;;;1.50;;
12687;SDS011;6408;59.388;17.798;2022-09-13T07:49:07;4.50;;;1.73;;
12687;SDS011;6408;59.388;17.798;2022-09-13T07:51:37;2.42;;;1.50;;
12687;SDS011;6408;59.388;17.798;2022-09-13T07:54:06;2.92;;;1.23;;
12687;SDS011;6408;59.388;17.798;2022-09-13T07:56:36;1.83;;;1.60;;
12687;SDS011;6408;59.388;17.798;2022-09-13T07:59:06;3.25;;;1.58;;
12687;SDS011;6408;59.388;17.798;2022-09-13T08:01:38;2.30;;;1.90;;
12687;SDS011;6408;59.388;17.798;2022-09-13T08:04:09;1.73;;;1.60;;
12687;SDS011;6408;59.388;17.798;2022-09-13T08:06:38;2.60;;;1.73;;
12687;SDS011;6408;59.388;17.798;2022-09-13T08:09:07;2.10;;;1.52;;
12687;SDS011;6408;59.388;17.798;2022-09-13T08:11:37;1.77;;;1.58;;
12687;SDS011;6408;59.388;17.798;2022-09-13T08:14:05;2.20;;;1.47;;
12687;SDS011;6408;59.388;17.798;2022-09-13T08:16:35;2.83;;;1.88;;
12687;SDS011;6408;59.388;17.798;2022-09-13T08:19:06;2.53;;;1.65;;
12687;SDS011;6408;59.388;17.798;2022-09-13T08:21:36;1.92;;;1.20;;
12687;SDS011;6408;59.388;17.798;2022-09-13T08:24:05;1.80;;;1.63;;
12687;SDS011;6408;59.388;17.798;2022-09-13T08:26:33;1.97;;;1.50;;
12687;SDS011;6408;59.388;17.798;2022-09-13T08:29:02;2.20;;;1.50;;
12687;SDS011;6408;59.388;17.798;2022-09-13T08:31:31;3.13;;;1.83;;
12687;SDS011;6408;59.388;17.798;2022-09-13T08:34:00;1.75;;;1.60;;
12687;SDS011;6408;59.388;17.798;2022-09-13T08:36:52;3.25;;;1.73;;
12687;SDS011;6408;59.388;17.798;2022-09-13T08:39:20;3.13;;;2.00;;
12687;SDS011;6408;59.388;17.798;2022-09-13T08:41:53;3.15;;;1.77;;
12687;SDS011;6408;59.388;17.798;2022-09-13T08:44:44;5.77;;;1.70;;
12687;SDS011;6408;59.388;17.798;2022-09-13T08:47:21;2.95;;;1.30;;
12687;SDS011;6408;59.388;17.798;2022-09-13T08:50:09;2.55;;;1.60;;
12687;SDS011;6408;59.388;17.798;2022-09-13T08:52:42;1.80;;;1.40;;
12687;SDS011;6408;59.388;17.798;2022-09-13T08:55:21;2.15;;;1.50;;
12687;SDS011;6408;59.388;17.798;2022-09-13T08:57:54;1.77;;;1.45;;
12687;SDS011;6408;59.388;17.798;2022-09-13T09:00:32;2.53;;;1.27;;
12687;SDS011;6408;59.388;17.798;2022-09-13T09:03:15;2.33;;;1.60;;
12687;SDS011;6408;59.388;17.798;2022-09-13T09:05:51;2.95;;;1.50;;
12687;SDS011;6408;59.388;17.798;2022-09-13T09:08:29;2.78;;;1.40;;
12687;SDS011;6408;59.388;17.798;2022-09-13T09:11:01;2.70;;;1.27;;
12687;SDS011;6408;59.388;17.798;2022-09-13T09:13:34;1.90;;;1.23;;
12687;SDS011;6408;59.388;17.798;2022-09-13T09:16:11;2.47;;;1.45;;
12687;SDS011;6408;59.388;17.798;2022-09-13T09:18:52;3.17;;;1.50;;
12687;SDS011;6408;59.388;17.798;2022-09-13T09:21:25;2.33;;;1.27;;
12687;SDS011;6408;59.388;17.798;2022-09-13T09:23:55;2.20;;;1.48;;
12687;SDS011;6408;59.388;17.798;2022-09-13T09:26:24;3.95;;;1.67;;
12687;SDS011;6408;59.388;17.798;2022-09-13T09:29:09;3.10;;;1.50;;
12687;SDS011;6408;59.388;17.798;2022-09-13T09:31:46;2.70;;;1.50;;
12687;SDS011;6408;59.388;17.798;2022-09-13T09:34:21;3.53;;;1.60;;
12687;SDS011;6408;59.388;17.798;2022-09-13T09:36:57;3.03;;;1.80;;
12687;SDS011;6408;59.388;17.798;2022-09-13T09:39:32;3.13;;;1.60;;
12687;SDS011;6408;59.388;17.798;2022-09-13T09:42:03;2.35;;;1.50;;
12687;SDS011;6408;59.388;17.798;2022-09-13T09:44:31;4.82;;;1.58;;
12687;SDS011;6408;59.388;17.798;2022-09-13T09:47:06;3.22;;;1.73;;
12687;SDS011;6408;59.388;17.798;2022-09-13T09:49:50;4.47;;;1.85;;
12687;SDS011;6408;59.388;17.798;2022-09-13T09:52:43;3.92;;;1.65;;
12687;SDS011;6408;59.388;17.798;2022-09-13T09:55:18;3.95;;;1.58;;
12687;SDS011;6408;59.388;17.798;2022-09-13T09:57:54;3.42;;;1.67;;
12687;SDS011;6408;59.388;17.798;2022-09-13T10:00:26;3.30;;;1.85;;
12687;SDS011;6408;59.388;17.798;2022-09-13T10:02:56;7.95;;;1.90;;
12687;SDS011;6408;59.388;17.798;2022-09-13T10:05:27;3.67;;;1.60;;
12687;SDS011;6408;59.388;17.798;2022-09-13T10:08:00;3.17;;;1.58;;
12687;SDS011;6408;59.388;17.798;2022-09-13T10:10:32;4.20;;;1.58;;
12687;SDS011;6408;59.388;17.798;2022-09-13T10:13:03;2.75;;;1.60;;
12687;SDS011;6408;59.388;17.798;2022-09-13T10:15:33;2.72;;;1.30;;
12687;SDS011;6408;59.388;17.798;2022-09-13T10:18:04;3.78;;;1.50;;
12687;SDS011;6408;59.388;17.798;2022-09-13T10:20:39;3.08;;;1.30;;
12687;SDS011;6408;59.388;17.798;2022-09-13T10:23:16;2.15;;;1.20;;
12687;SDS011;6408;59.388;17.798;2022-09-13T10:25:45;7.82;;;2.03;;
12687;SDS011;6408;59.388;17.798;2022-09-13T10:28:25;2.70;;;1.45;;
12687;SDS011;6408;59.388;17.798;2022-09-13T10:30:53;2.63;;;1.65;;
12687;SDS011;6408;59.388;17.798;2022-09-13T10:33:25;2.90;;;1.45;;
12687;SDS011;6408;59.388;17.798;2022-09-13T10:36:03;2.90;;;1.45;;
12687;SDS011;6408;59.388;17.798;2022-09-13T10:38:36;4.15;;;1.50;;
12687;SDS011;6408;59.388;17.798;2022-09-13T10:41:06;3.03;;;1.52;;
12687;SDS011;6408;59.388;17.798;2022-09-13T10:43:45;5.72;;;1.60;;
12687;SDS011;6408;59.388;17.798;2022-09-13T10:46:21;5.28;;;1.83;;
12687;SDS011;6408;59.388;17.798;2022-09-13T10:48:52;3.88;;;1.60;;
12687;SDS011;6408;59.388;17.798;2022-09-13T10:51:29;3.50;;;1.40;;
12687;SDS011;6408;59.388;17.798;2022-09-13T10:54:18;4.93;;;1.60;;
12687;SDS011;6408;59.388;17.798;2022-09-13T10:56:49;2.55;;;1.60;;
12687;SDS011;6408;59.388;17.798;2022-09-13T10:59:18;3.53;;;1.70;;
12687;SDS011;6408;59.388;17.798;2022-09-13T11:01:54;4.13;;;1.73;;
12687;SDS011;6408;59.388;17.798;2022-09-13T11:04:53;3.22;;;1.88;;
12687;SDS011;6408;59.388;17.798;2022-09-13T11:10:26;2.40;;;1.55;;
12687;SDS011;6408;59.388;17.798;2022-09-13T11:12:59;2.80;;;1.70;;
12687;SDS011;6408;59.388;17.798;2022-09-13T11:15:39;6.57;;;2.03;;
12687;SDS011;6408;59.388;17.798;2022-09-13T11:18:21;4.57;;;1.85;;
12687;SDS011;6408;59.388;17.798;2022-09-13T11:21:03;3.58;;;1.75;;
12687;SDS011;6408;59.388;17.798;2022-09-13T11:23:42;3.20;;;1.88;;
12687;SDS011;6408;59.388;17.798;2022-09-13T11:26:32;2.30;;;1.85;;
12687;SDS011;6408;59.388;17.798;2022-09-13T11:29:16;3.53;;;1.77;;
12687;SDS011;6408;59.388;17.798;2022-09-13T11:31:56;4.65;;;1.83;;
12687;SDS011;6408;59.388;17.798;2022-09-13T11:34:37;2.70;;;1.52;;
12687;SDS011;6408;59.388;17.798;2022-09-13T11:37:17;4.13;;;2.08;;
12687;SDS011;6408;59.388;17.798;2022-09-13T11:40:00;3.97;;;2.40;;
12687;SDS011;6408;59.388;17.798;2022-09-13T11:42:45;4.38;;;1.95;;
12687;SDS011;6408;59.388;17.798;2022-09-13T11:45:20;2.45;;;1.90;;
12687;SDS011;6408;59.388;17.798;2022-09-13T11:50:56;3.25;;;1.90;;
12687;SDS011;6408;59.388;17.798;2022-09-13T11:53:37;3.40;;;1.98;;
12687;SDS011;6408;59.388;17.798;2022-09-13T11:56:18;2.20;;;2.00;;
12687;SDS011;6408;59.388;17.798;2022-09-13T11:58:53;2.75;;;2.00;;
12687;SDS011;6408;59.388;17.798;2022-09-13T12:01:24;4.18;;;2.30;;
12687;SDS011;6408;59.388;17.798;2022-09-13T12:03:55;2.60;;;2.10;;
12687;SDS011;6408;59.388;17.798;2022-09-13T12:06:30;4.35;;;2.15;;
12687;SDS011;6408;59.388;17.798;2022-09-13T12:09:06;3.22;;;2.10;;
12687;SDS011;6408;59.388;17.798;2022-09-13T12:11:42;2.72;;;1.88;;
12687;SDS011;6408;59.388;17.798;2022-09-13T12:14:17;3.63;;;1.95;;
12687;SDS011;6408;59.388;17.798;2022-09-13T12:16:54;2.17;;;1.98;;
12687;SDS011;6408;59.388;17.798;2022-09-13T12:19:26;3.55;;;2.05;;
12687;SDS011;6408;59.388;17.798;2022-09-13T12:22:06;3.47;;;1.95;;
12687;SDS011;6408;59.388;17.798;2022-09-13T12:24:38;4.40;;;1.95;;
12687;SDS011;6408;59.388;17.798;2022-09-13T12:27:11;3.15;;;1.90;;
12687;SDS011;6408;59.388;17.798;2022-09-13T12:29:49;3.10;;;2.08;;
12687;SDS011;6408;59.388;17.798;2022-09-13T12:32:19;2.67;;;2.05;;
12687;SDS011;6408;59.388;17.798;2022-09-13T12:34:48;2.78;;;2.10;;
12687;SDS011;6408;59.388;17.798;2022-09-13T12:37:32;3.92;;;2.03;;
12687;SDS011;6408;59.388;17.798;2022-09-13T12:40:18;4.70;;;2.35;;
12687;SDS011;6408;59.388;17.798;2022-09-13T12:43:02;2.17;;;1.75;;
12687;SDS011;6408;59.388;17.798;2022-09-13T12:45:57;3.65;;;2.00;;
12687;SDS011;6408;59.388;17.798;2022-09-13T12:48:40;5.00;;;2.20;;
12687;SDS011;6408;59.388;17.798;2022-09-13T12:52:29;2.70;;;2.10;;
12687;SDS011;6408;59.388;17.798;2022-09-13T12:54:38;4.03;;;2.20;;
12687;SDS011;6408;59.388;17.798;2022-09-13T12:57:33;3.28;;;1.92;;
12687;SDS011;6408;59.388;17.798;2022-09-13T13:00:12;3.75;;;2.10;;
12687;SDS011;6408;59.388;17.798;2022-09-13T13:03:05;3.35;;;1.92;;
12687;SDS011;6408;59.388;17.798;2022-09-13T13:05:49;3.97;;;2.30;;
12687;SDS011;6408;59.388;17.798;2022-09-13T13:08:37;3.65;;;2.05;;
12687;SDS011;6408;59.388;17.798;2022-09-13T13:11:16;3.30;;;2.10;;
12687;SDS011;6408;59.388;17.798;2022-09-13T13:13:52;2.00;;;1.75;;
12687;SDS011;6408;59.388;17.798;2022-09-13T13:16:26;3.63;;;1.90;;
12687;SDS011;6408;59.388;17.798;2022-09-13T13:18:59;3.75;;;1.98;;
12687;SDS011;6408;59.388;17.798;2022-09-13T13:21:35;2.40;;;1.80;;
12687;SDS011;6408;59.388;17.798;2022-09-13T13:27:33;2.65;;;1.90;;
12687;SDS011;6408;59.388;17.798;2022-09-13T13:33:13;7.47;;;2.00;;
12687;SDS011;6408;59.388;17.798;2022-09-13T13:35:45;2.72;;;1.98;;
12687;SDS011;6408;59.388;17.798;2022-09-13T13:38:27;3.58;;;2.10;;
12687;SDS011;6408;59.388;17.798;2022-09-13T13:50:12;1.65;;;0.80;;
12687;SDS011;6408;59.388;17.798;2022-09-13T13:52:51;1.95;;;0.60;;
12687;SDS011;6408;59.388;17.798;2022-09-13T13:55:37;1.67;;;0.60;;
12687;SDS011;6408;59.388;17.798;2022-09-13T13:58:13;0.85;;;0.60;;
12687;SDS011;6408;59.388;17.798;2022-09-13T14:01:05;0.77;;;0.73;;
12687;SDS011;6408;59.388;17.798;2022-09-13T14:03:48;0.98;;;0.80;;
12687;SDS011;6408;59.388;17.798;2022-09-13T14:06:27;0.85;;;0.75;;
12687;SDS011;6408;59.388;17.798;2022-09-13T14:09:10;0.80;;;0.60;;
12687;SDS011;6408;59.388;17.798;2022-09-13T14:11:48;0.88;;;0.88;;
12687;SDS011;6408;59.388;17.798;2022-09-13T14:14:32;3.13;;;1.00;;
12687;SDS011;6408;59.388;17.798;2022-09-13T14:20:26;1.67;;;0.65;;
12687;SDS011;6408;59.388;17.798;2022-09-13T14:25:40;0.80;;;0.70;;
12687;SDS011;6408;59.388;17.798;2022-09-13T14:28:11;1.92;;;0.80;;
12687;SDS011;6408;59.388;17.798;2022-09-13T14:30:43;1.35;;;0.73;;
12687;SDS011;6408;59.388;17.798;2022-09-13T14:33:17;1.00;;;0.82;;
12687;SDS011;6408;59.388;17.798;2022-09-13T14:36:03;0.73;;;0.70;;
12687;SDS011;6408;59.388;17.798;2022-09-13T14:38:45;0.85;;;0.85;;
12687;SDS011;6408;59.388;17.798;2022-09-13T14:41:20;1.55;;;1.02;;
12687;SDS011;6408;59.388;17.798;2022-09-13T14:44:19;1.98;;;0.80;;
12687;SDS011;6408;59.388;17.798;2022-09-13T14:46:50;1.23;;;0.88;;
12687;SDS011;6408;59.388;17.798;2022-09-13T14:49:23;1.15;;;0.68;;
12687;SDS011;6408;59.388;17.798;2022-09-13T14:52:03;0.70;;;0.70;;
12687;SDS011;6408;59.388;17.798;2022-09-13T14:55:07;1.05;;;0.82;;
12687;SDS011;6408;59.388;17.798;2022-09-13T14:57:50;1.15;;;1.00;;
12687;SDS011;6408;59.388;17.798;2022-09-13T15:00:51;1.05;;;0.80;;
12687;SDS011;6408;59.388;17.798;2022-09-13T15:03:53;3.70;;;1.00;;
12687;SDS011;6408;59.388;17.798;2022-09-13T15:06:26;0.82;;;0.73;;
12687;SDS011;6408;59.388;17.798;2022-09-13T15:08:55;1.30;;;0.80;;
12687;SDS011;6408;59.388;17.798;2022-09-13T15:11:41;1.55;;;0.90;;
12687;SDS011;6408;59.388;17.798;2022-09-13T15:14:37;2.88;;;0.95;;
12687;SDS011;6408;59.388;17.798;2022-09-13T15:17:18;2.05;;;0.90;;
12687;SDS011;6408;59.388;17.798;2022-09-13T15:20:01;1.45;;;1.10;;
12687;SDS011;6408;59.388;17.798;2022-09-13T15:22:33;2.40;;;1.00;;
12687;SDS011;6408;59.388;17.798;2022-09-13T15:25:16;1.27;;;1.00;;
12687;SDS011;6408;59.388;17.798;2022-09-13T15:27:56;2.78;;;1.17;;
12687;SDS011;6408;59.388;17.798;2022-09-13T15:30:27;2.05;;;0.93;;
12687;SDS011;6408;59.388;17.798;2022-09-13T15:33:05;5.47;;;1.10;;
12687;SDS011;6408;59.388;17.798;2022-09-13T15:35:45;1.60;;;1.10;;
12687;SDS011;6408;59.388;17.798;2022-09-13T15:38:22;3.33;;;1.13;;
12687;SDS011;6408;59.388;17.798;2022-09-13T15:41:11;2.22;;;1.02;;
12687;SDS011;6408;59.388;17.798;2022-09-13T15:43:47;3.08;;;1.30;;
12687;SDS011;6408;59.388;17.798;2022-09-13T15:46:15;1.58;;;1.00;;
12687;SDS011;6408;59.388;17.798;2022-09-13T15:48:49;1.42;;;1.15;;
12687;SDS011;6408;59.388;17.798;2022-09-13T15:51:18;3.70;;;1.13;;
12687;SDS011;6408;59.388;17.798;2022-09-13T15:53:49;1.80;;;1.00;;
12687;SDS011;6408;59.388;17.798;2022-09-13T15:56:21;2.13;;;1.05;;
12687;SDS011;6408;59.388;17.798;2022-09-13T15:58:52;1.58;;;1.10;;
12687;SDS011;6408;59.388;17.798;2022-09-13T16:01:22;1.25;;;1.15;;
12687;SDS011;6408;59.388;17.798;2022-09-13T16:03:51;2.25;;;1.05;;
12687;SDS011;6408;59.388;17.798;2022-09-13T16:06:21;2.08;;;1.20;;
12687;SDS011;6408;59.388;17.798;2022-09-13T16:08:50;1.50;;;0.90;;